• Join FlightAware (Why Join?)
  • Login
  • US Flag 
 
09:53PM EST


 

Airport Tracker/Info


-or-


 

Live Flight TrackerFlight Track Log ✈ N559LC ✈ 24-Aug-2013 ✈ KDTW - CYYZ

Flight Track Log - Related Links

Times and Time Zones

All times are in EDT time to prevent confusion due to time zone crossing. See the N559LC flight status page for this flight to view local times or setup timezone preferences in your user account.

Time Position Orientation Groundspeed Altitude Reporting Facility
EDT Latitude Longitude Course Direction KTS MPH feet Rate Location/Type
10:28AM 42.1925 -83.3539 228° Southwest 185 213 1,600  Level Cleveland Center
10:29AM 42.1567 -83.4081 228° Southwest 246 283 4,300 3,360 Climbing Cleveland Center
10:30AM 42.1106 -83.4886 232° Southwest 277 319 8,100 2,820 Climbing Cleveland Center
10:31AM 42.1433 -83.5781 296° West 294 338 10,100 1,020 Climbing Cleveland Center
10:33AM 42.2578 -83.6536 334° Northwest 337 388 10,700 840 Climbing Cleveland Center
10:34AM 42.3542 -83.6544 360° North 353 406 12,300 1,860 Climbing Cleveland Center
10:35AM 42.4392 -83.5808 33° Northeast 361 415 14,600 2,160 Climbing Cleveland Center
10:36AM 42.5225 -83.4975 36° Northeast 367 422 16,900 2,160 Climbing Cleveland Center
10:37AM 42.6094 -83.4133 35° Northeast 379 436 19,100 1,860 Climbing Cleveland Center
10:38AM 42.7006 -83.3239 36° Northeast 399 459 20,800 900 Climbing Cleveland Center
10:39AM 42.7981 -83.2275 36° Northeast 430 495 21,000 60 Climbing Cleveland Center
10:40AM 42.8958 -83.0783 48° Northeast 439 505 21,000  Level Cleveland Center
10:41AM 42.9356 -82.9392 69° East 393 452 21,000  Level Cleveland Center
10:42AM 42.9656 -82.7961 74° East 393 452 21,000  Level Cleveland Center
10:43AM 43.0008 -82.6378 73° East 437 503 21,000  Level Cleveland Center
10:44AM 43.0344 -82.4692 75° East 459 528 21,000  Level Cleveland Center
10:45AM 43.0500 -82.3333 81° East 460 529 21,000  Level Toronto Center
10:46AM 43.0833 -82.1500 76° East 460 529 21,000  Level Toronto Center
10:47AM 43.1167 -81.9833 75° East 460 529 21,000  Level Toronto Center
10:48AM 43.1667 -81.8000 69° East 460 529 21,000  Level Toronto Center
10:49AM 43.2000 -81.6500 73° East 460 529 21,000  Level Toronto Center
10:50AM 43.2333 -81.4667 76° East 460 529 21,000 -420 Level Toronto Center
10:51AM 43.2667 -81.3000 75° East 460 529 20,200 -1,440 Descending Toronto Center
10:52AM 43.2833 -81.1500 81° East 450 518 18,200 -1,800 Descending Toronto Center
10:53AM 43.3167 -80.9833 75° East 430 495 16,700 -1,800 Descending Toronto Center
10:54AM 43.3500 -80.8500 71° East 420 483 14,700 -2,100 Descending Toronto Center
10:55AM 43.3833 -80.6833 75° East 410 472 12,600 -1,740 Descending Toronto Center
10:56AM 43.4167 -80.5333 73° East 400 460 11,300 -840 Descending Toronto Center
10:57AM 43.4500 -80.3833 73° East 390 449 11,000 -180 Descending Toronto Center
10:58AM 43.4833 -80.2500 71° East 390 449 11,000  Level Toronto Center
10:59AM 43.5167 -80.1167 71° East 360 414 11,000  Level Toronto Center
11:00AM 43.5500 -80.0167 65° Northeast 300 345 11,000  Level Toronto Center
11:01AM 43.5667 -79.9167 77° East 300 345 11,000 -720 Level Toronto Center
11:02AM 43.5833 -79.8000 79° East 300 345 9,600 -1,500 Descending Toronto Center
11:03AM 43.5833 -79.7000 90° East 290 334 8,100 -1,020 Descending Toronto Center
11:04AM 43.5833 -79.5833 90° East 270 311 7,600 -1,080 Descending Toronto Center
11:05AM 43.6000 -79.5000 75° East 250 288 6,000 -1,500 Descending Toronto Center
11:06AM 43.6500 -79.4333 44° Northeast 230 265 4,600 -1,200 Descending Toronto Center
11:07AM 43.7000 -79.3833 36° Northeast 210 242 3,600 -840 Descending Toronto Center
11:08AM 43.7500 -79.4000 346° North 210 242 3,000 -300 Descending Toronto Center
11:09AM 43.7500 -79.4667 270° West 180 207 3,000 -600 Level Toronto Center
11:10AM 43.7167 -79.5167 227° Southwest 170 196 1,800 -1,020 Descending Toronto Center
11:11AM 43.6833 -79.5667 227° Southwest 150 173 1,000 -840 Descending Toronto Center